Graf, Nebraska
Current Conditions -  °F | °C
As of 12:15 PM on Thursday 18 Dec 2014 (Local Time) from KAFK Reporting Station
Overcast Overcast  
Wind Chill: 29°   Ceiling: 800
Heat Index: 29°   Visibility: 10mi
Dew Point: 27°   Wind: 0mph
Humidity: 92%   Direction: NA
Pressure: 30.22"   Gusts: NA
Location:  40.3627°N, 96.254°W
Report Text: KAFK 181815Z AUTO 00000KT 10SM OVC008 M01/M03 A3022 RMK AO2 T10151027
Loading
Personal Weather Stations






























Interactive Weather Map New forecast layout! Learn more

10-Day Weather Forecast

Advertisements
Track Severe Weather on mobile